Delta Virtual Airport Information Service

Papeete Tahiti Faa'a International Airport

ICAO: NTAA Country: French Polynesia
Latitude: -17.5566 Longitude: -149.611
Latest Arrival : UAL115 (1) (KSFO-NTAA) Latest Departure : UAL114 (1) (NTAA-KSFO)


WX CaptureLIVE
Data provided by noaa.gov | Fetched at 14:13:44

METAR : NTAA 291830Z 26005KT 9999 FEW026 28/22 Q1017 NOSIG

TAF : NTAA 291700Z 2918/3024 VRB05KT 9999 FEW023 SCT050 PROB30 TEMPO 2921/3002 05015KT


Runway Data for NTAA
Data provided by openaviationdata.com

Runway ID Mag Var Hdg Length Elevation Surface ILS Freq ILS Id ILS Slope
4 12 42° 11231 ft 5 ft Asphalt 109.9 PT 3
22 12 222° 11231 ft 5 ft Asphalt -- -- --

Papeete Tahiti Faa'a International Airport, French Polynesia
Use only for reference purposes



Not for navigational purposes.